Terminal Aerodrome Forecast
Issued by NWS Indianapolis, IN

Home | Current Version | Previous Version | Text Only | Print | Product List | Glossary On
Versions: 1 2 3 4 5 6 7 8 9 10 11 12 13 14 15 16 17 18 19 20 21 22 23 24 25 26 27
979
FTUS43 KIND 110308 AAB
TAFIND
TAF AMD
KIND 110308Z 1103/1206 15006KT P6SM BKN090
     FM111500 15009KT P6SM VCSH OVC050
     FM111800 18010KT P6SM -FZRASNPL OVC045
     FM112100 19010KT P6SM -RA OVC030
     FM112300 20010G20KT 6SM -RA OVC015
     FM120400 23010KT 5SM -RASNPL BR OVC003=

USA.gov is the U.S. government's official web portal to all federal, state and local government web resources and services.